Terminal Aerodrome Forecast
Issued by NWS

Home | Current Version | Previous Version | Text Only | Print | Product List | Glossary On
Versions: 1 2 3 4 5 6 7 8 9 10 11 12
965
FTUS42 KGSP 261127
TAFAND
TAF
KAND 261127Z 2612/2712 03003KT P6SM FEW250
     FM261500 03007KT P6SM FEW250
     FM262300 02003KT P6SM FEW080=

USA.gov is the U.S. government's official web portal to all federal, state and local government web resources and services.